createdAt,value
2022-12-29T00:01:02.713Z,9.73
2022-12-29T00:03:30.740Z,8.60
2022-12-29T00:05:59.484Z,7.93
2022-12-29T00:08:40.670Z,8.63
2022-12-29T00:11:11.525Z,7.13
2022-12-29T00:13:57.237Z,7.27
2022-12-29T00:16:25.106Z,7.83
2022-12-29T00:18:52.859Z,8.77
2022-12-29T00:21:39.983Z,7.37
2022-12-29T00:24:25.390Z,7.93
2022-12-29T00:27:17.934Z,8.57
2022-12-29T00:30:03.325Z,7.50
2022-12-29T00:32:48.824Z,6.23
2022-12-29T00:35:23.094Z,7.17
2022-12-29T00:38:08.463Z,6.93
2022-12-29T00:40:53.829Z,7.77
2022-12-29T00:43:40.538Z,6.63
2022-12-29T00:46:08.558Z,6.93
2022-12-29T00:48:55.099Z,6.17
2022-12-29T00:51:22.816Z,7.00
2022-12-29T00:53:50.534Z,7.47
2022-12-29T00:56:18.331Z,6.67
2022-12-29T00:58:47.655Z,6.33
2022-12-29T01:01:15.847Z,7.07
2022-12-29T01:03:47.368Z,6.43
2022-12-29T01:06:15.109Z,6.73
2022-12-29T01:08:42.839Z,6.23
2022-12-29T01:11:11.737Z,7.03
2022-12-29T01:13:41.916Z,6.60
2022-12-29T01:16:11.052Z,6.90
2022-12-29T01:18:38.783Z,6.53
2022-12-29T01:21:08.214Z,6.43
2022-12-29T01:23:35.941Z,6.83
2022-12-29T01:26:10.872Z,6.50
2022-12-29T01:28:41.186Z,6.33
2022-12-29T01:31:09.521Z,7.33
2022-12-29T01:33:39.576Z,6.40
2022-12-29T01:36:09.836Z,8.10
2022-12-29T01:38:39.297Z,6.00
2022-12-29T01:41:08.330Z,6.63
2022-12-29T01:43:44.220Z,5.80
2022-12-29T01:46:21.437Z,5.73
2022-12-29T01:48:53.486Z,6.27
2022-12-29T01:51:23.972Z,6.47
2022-12-29T01:53:52.435Z,5.90
2022-12-29T01:56:21.910Z,6.10
2022-12-29T01:58:53.708Z,6.10
2022-12-29T02:01:23.363Z,6.13
2022-12-29T02:03:53.791Z,7.07
2022-12-29T02:06:26.761Z,5.73
2022-12-29T02:08:57.220Z,5.80
2022-12-29T02:11:28.059Z,5.10
2022-12-29T02:13:55.772Z,5.80
2022-12-29T02:16:38.030Z,5.93
2022-12-29T02:19:44.341Z,5.53
2022-12-29T02:22:23.725Z,6.63
2022-12-29T02:25:19.713Z,5.73
2022-12-29T02:27:56.133Z,5.33
2022-12-29T02:30:46.557Z,6.07
2022-12-29T02:33:33.864Z,5.63
2022-12-29T02:36:09.696Z,5.70
2022-12-29T02:38:50.644Z,6.30
2022-12-29T02:41:24.729Z,5.90
2022-12-29T02:43:58.680Z,5.63
2022-12-29T02:46:34.135Z,5.40
2022-12-29T02:49:13.340Z,5.60
2022-12-29T02:51:49.570Z,6.17
2022-12-29T02:54:37.452Z,5.97
2022-12-29T02:57:05.486Z,5.83
2022-12-29T02:59:33.243Z,5.30
2022-12-29T03:02:25.947Z,5.53
2022-12-29T03:05:17.033Z,5.70
2022-12-29T03:07:53.665Z,5.70
2022-12-29T03:10:35.671Z,5.30
2022-12-29T03:13:28.159Z,6.00
2022-12-29T03:16:06.485Z,5.13
2022-12-29T03:18:58.502Z,4.97
2022-12-29T03:21:51.812Z,5.40
2022-12-29T03:24:24.107Z,5.87
2022-12-29T03:26:55.277Z,5.70
2022-12-29T03:29:23.155Z,5.40
2022-12-29T03:31:53.848Z,5.23
2022-12-29T03:34:26.119Z,5.00
2022-12-29T03:37:01.590Z,5.17
2022-12-29T03:39:29.748Z,5.17
2022-12-29T03:42:02.554Z,5.17
2022-12-29T03:44:35.487Z,5.47
2022-12-29T03:47:03.242Z,5.13
2022-12-29T03:49:32.347Z,5.50
2022-12-29T03:52:00.209Z,5.20
2022-12-29T03:54:27.934Z,4.83
2022-12-29T03:56:55.653Z,5.60
2022-12-29T03:59:23.468Z,4.80
2022-12-29T04:01:51.230Z,5.40
2022-12-29T04:04:19.184Z,5.20
2022-12-29T04:06:48.280Z,5.77
2022-12-29T04:09:16.055Z,5.20
2022-12-29T04:11:45.460Z,5.17
2022-12-29T04:14:13.172Z,4.97
2022-12-29T04:16:42.429Z,5.17
2022-12-29T04:19:10.240Z,4.83
2022-12-29T04:21:37.954Z,4.77
2022-12-29T04:24:08.428Z,5.17
2022-12-29T04:26:36.429Z,4.90
2022-12-29T04:29:04.254Z,4.97
2022-12-29T04:31:32.064Z,5.17
2022-12-29T04:34:00.996Z,5.00
2022-12-29T04:36:30.346Z,4.60
2022-12-29T04:38:58.213Z,4.90
2022-12-29T04:41:27.702Z,4.30
2022-12-29T04:43:55.446Z,5.20
2022-12-29T04:46:23.186Z,4.60
2022-12-29T04:48:51.043Z,4.70
2022-12-29T04:51:18.958Z,4.97
2022-12-29T04:53:46.685Z,4.90
2022-12-29T04:56:14.447Z,5.07
2022-12-29T04:58:43.607Z,4.97
2022-12-29T05:01:11.311Z,6.00
2022-12-29T05:03:39.086Z,5.03
2022-12-29T05:06:07.426Z,5.97
2022-12-29T05:08:35.203Z,4.93
2022-12-29T05:11:02.944Z,4.63
2022-12-29T05:13:30.644Z,5.60
2022-12-29T05:15:59.878Z,4.93
2022-12-29T05:18:27.622Z,4.90
2022-12-29T05:20:55.335Z,4.70
2022-12-29T05:23:23.138Z,4.83
2022-12-29T05:25:50.854Z,4.07
2022-12-29T05:28:18.718Z,4.50
2022-12-29T05:30:46.640Z,4.73
2022-12-29T05:33:15.734Z,4.67
2022-12-29T05:35:43.445Z,5.50
2022-12-29T05:38:11.232Z,4.40
2022-12-29T05:40:38.991Z,4.80
2022-12-29T05:43:06.709Z,4.50
2022-12-29T05:45:35.427Z,4.47
2022-12-29T05:48:03.166Z,4.43
2022-12-29T05:50:32.252Z,4.07
2022-12-29T05:52:59.943Z,5.73
2022-12-29T05:55:27.697Z,4.53
2022-12-29T05:57:55.402Z,4.70
2022-12-29T06:00:23.275Z,4.90
2022-12-29T06:02:51.289Z,6.10
2022-12-29T06:05:19.141Z,4.63
2022-12-29T06:07:48.287Z,4.73
2022-12-29T06:10:16.217Z,4.67
2022-12-29T06:12:44.036Z,4.97
2022-12-29T06:15:12.706Z,4.23
2022-12-29T06:17:40.867Z,4.57
2022-12-29T06:20:10.606Z,4.70
2022-12-29T06:22:38.665Z,4.80
2022-12-29T06:25:08.603Z,4.80
2022-12-29T06:27:36.351Z,5.13
2022-12-29T06:30:04.467Z,4.40
2022-12-29T06:32:32.289Z,4.80
2022-12-29T06:35:00.293Z,5.23
2022-12-29T06:37:28.198Z,5.30
2022-12-29T06:39:55.930Z,4.53
2022-12-29T06:42:25.034Z,6.73
2022-12-29T06:44:53.279Z,4.77
2022-12-29T06:47:21.153Z,5.33
2022-12-29T06:49:48.899Z,4.77
2022-12-29T06:52:16.611Z,4.63
2022-12-29T06:54:44.977Z,5.20
2022-12-29T06:57:12.701Z,5.60
2022-12-29T06:59:41.774Z,6.40
2022-12-29T07:02:12.213Z,5.63
2022-12-29T07:04:40.101Z,7.70
2022-12-29T07:07:07.797Z,4.67
2022-12-29T07:09:35.514Z,5.23
2022-12-29T07:12:03.312Z,5.63
2022-12-29T07:14:31.014Z,5.20
2022-12-29T07:17:00.147Z,4.07
2022-12-29T07:19:28.006Z,4.90
2022-12-29T07:21:56.773Z,5.03
2022-12-29T07:24:26.573Z,5.07
2022-12-29T07:26:54.644Z,5.00
2022-12-29T07:29:22.448Z,4.70
2022-12-29T07:31:50.251Z,4.57
2022-12-29T07:34:19.421Z,4.10
2022-12-29T07:36:47.134Z,5.00
2022-12-29T07:39:14.862Z,4.23
2022-12-29T07:41:42.573Z,4.53
2022-12-29T07:44:10.852Z,4.57
2022-12-29T07:46:53.962Z,4.27
2022-12-29T07:49:25.879Z,4.93
2022-12-29T07:51:54.804Z,4.57
2022-12-29T07:54:23.554Z,4.73
2022-12-29T07:56:52.613Z,5.63
2022-12-29T07:59:20.472Z,4.53
2022-12-29T08:01:48.409Z,4.80
2022-12-29T08:04:16.342Z,5.70
2022-12-29T08:06:46.516Z,4.73
2022-12-29T08:09:19.765Z,4.73
2022-12-29T08:11:50.482Z,5.13
2022-12-29T08:14:18.351Z,8.27
2022-12-29T08:16:46.332Z,5.30
2022-12-29T08:19:14.835Z,5.27
2022-12-29T08:21:42.572Z,5.60
2022-12-29T08:24:11.938Z,6.03
2022-12-29T08:26:40.521Z,5.50
2022-12-29T08:29:08.427Z,5.30
2022-12-29T08:31:36.245Z,9.80
2022-12-29T08:34:04.519Z,5.70
2022-12-29T08:36:32.934Z,6.37
2022-12-29T08:39:01.017Z,7.73
2022-12-29T08:41:30.629Z,10.87
2022-12-29T08:43:58.941Z,7.97
2022-12-29T08:46:27.261Z,7.87
2022-12-29T08:48:56.314Z,6.50
2022-12-29T08:51:25.183Z,5.40
2022-12-29T08:53:54.258Z,5.77
2022-12-29T08:56:22.595Z,5.37
2022-12-29T08:58:52.303Z,5.40
2022-12-29T09:01:20.672Z,4.73
2022-12-29T09:04:14.892Z,4.73
2022-12-29T09:06:40.543Z,5.23
2022-12-29T09:09:09.687Z,4.90
2022-12-29T09:11:37.976Z,5.67
2022-12-29T09:14:07.764Z,4.10
2022-12-29T09:16:37.380Z,5.60
2022-12-29T09:19:05.909Z,3.40
2022-12-29T09:21:34.485Z,3.90
2022-12-29T09:24:02.261Z,4.20
2022-12-29T09:26:29.980Z,3.90
2022-12-29T09:28:57.823Z,4.30
2022-12-29T09:31:27.198Z,4.07
2022-12-29T09:33:54.947Z,4.97
2022-12-29T09:36:22.718Z,4.00
2022-12-29T09:38:51.896Z,3.23
2022-12-29T09:41:26.361Z,3.80
2022-12-29T09:44:05.324Z,3.67
2022-12-29T09:46:39.206Z,4.03
2022-12-29T09:49:18.412Z,4.40
2022-12-29T09:51:50.325Z,4.20
2022-12-29T09:54:31.387Z,4.50
2022-12-29T09:56:59.375Z,3.83
2022-12-29T09:59:37.409Z,3.87
2022-12-29T10:02:16.726Z,4.33
2022-12-29T10:04:45.685Z,4.57
2022-12-29T10:07:31.068Z,3.93
2022-12-29T10:10:08.743Z,4.40
2022-12-29T10:12:54.286Z,4.17
2022-12-29T10:15:35.920Z,3.77
2022-12-29T10:18:16.540Z,3.77
2022-12-29T10:20:52.108Z,4.47
2022-12-29T10:23:29.797Z,4.13
2022-12-29T10:25:59.738Z,3.60
2022-12-29T10:28:37.438Z,4.30
2022-12-29T10:31:10.193Z,5.67
2022-12-29T10:33:43.673Z,3.57
2022-12-29T10:36:17.495Z,3.70
2022-12-29T10:38:53.052Z,3.93
2022-12-29T10:41:27.003Z,4.60
2022-12-29T10:43:56.933Z,3.47
2022-12-29T10:46:29.013Z,4.33
2022-12-29T10:48:58.221Z,3.53
2022-12-29T10:51:28.375Z,4.00
2022-12-29T10:54:03.081Z,4.50
2022-12-29T10:56:35.612Z,3.93
2022-12-29T10:59:12.645Z,4.50
2022-12-29T11:01:50.295Z,3.70
2022-12-29T11:04:36.556Z,4.33
2022-12-29T11:07:05.235Z,4.20
2022-12-29T11:09:42.564Z,4.30
2022-12-29T11:12:22.206Z,4.13
2022-12-29T11:15:02.388Z,4.20
2022-12-29T11:17:30.087Z,4.13
2022-12-29T11:19:59.170Z,4.00
2022-12-29T11:22:29.732Z,4.40
2022-12-29T11:25:08.732Z,4.33
2022-12-29T11:27:36.743Z,4.30
2022-12-29T11:30:23.771Z,3.83
2022-12-29T11:32:53.453Z,3.50
2022-12-29T11:35:32.820Z,3.63
2022-12-29T11:38:02.017Z,3.93
2022-12-29T11:40:30.655Z,4.03
2022-12-29T11:43:03.619Z,4.33
2022-12-29T11:45:35.265Z,4.10
2022-12-29T11:48:09.447Z,3.87
2022-12-29T11:50:42.390Z,4.27
2022-12-29T11:53:19.453Z,3.60
2022-12-29T11:55:54.869Z,4.27
2022-12-29T11:58:22.773Z,5.53
2022-12-29T12:00:51.617Z,4.27
2022-12-29T12:03:25.755Z,4.93
2022-12-29T12:06:00.705Z,4.47
2022-12-29T12:08:35.718Z,4.10
2022-12-29T12:11:11.535Z,4.17
2022-12-29T12:13:44.897Z,3.30
2022-12-29T12:16:17.222Z,3.80
2022-12-29T12:18:49.988Z,5.10
2022-12-29T12:21:27.320Z,3.93
2022-12-29T12:24:21.449Z,4.50
2022-12-29T12:26:58.659Z,3.50
2022-12-29T12:29:34.551Z,4.00
2022-12-29T12:32:11.305Z,3.63
2022-12-29T12:34:43.066Z,3.43
2022-12-29T12:37:44.953Z,3.57
2022-12-29T12:40:55.275Z,4.77
2022-12-29T12:43:42.534Z,4.00
2022-12-29T12:46:34.028Z,3.97
2022-12-29T12:49:23.057Z,3.57
2022-12-29T12:52:05.111Z,6.33
2022-12-29T12:54:48.456Z,5.13
2022-12-29T12:57:24.382Z,4.13
2022-12-29T13:00:02.589Z,3.90
2022-12-29T13:02:49.267Z,5.57
2022-12-29T13:05:34.581Z,3.73
2022-12-29T13:08:25.674Z,3.97
2022-12-29T13:11:00.292Z,4.20
2022-12-29T13:13:46.317Z,4.20
2022-12-29T13:16:23.209Z,4.43
2022-12-29T13:18:59.276Z,3.73
2022-12-29T13:21:42.146Z,5.33
2022-12-29T13:24:17.913Z,3.93
2022-12-29T13:26:51.880Z,3.63
2022-12-29T13:29:25.666Z,3.93
2022-12-29T13:32:01.818Z,3.83
2022-12-29T13:34:41.394Z,4.10
2022-12-29T13:37:14.643Z,5.10
2022-12-29T13:39:47.968Z,4.17
2022-12-29T13:42:20.598Z,5.00
2022-12-29T13:44:54.333Z,4.10
2022-12-29T13:47:29.270Z,3.50
2022-12-29T13:50:00.395Z,3.70
2022-12-29T13:52:37.465Z,4.43
2022-12-29T13:55:23.149Z,3.57
2022-12-29T13:57:58.690Z,4.70
2022-12-29T14:00:31.275Z,3.43
2022-12-29T14:03:28.218Z,3.20
2022-12-29T14:06:14.259Z,3.53
2022-12-29T14:08:42.628Z,3.67
2022-12-29T14:11:13.046Z,3.60
2022-12-29T14:13:44.872Z,3.10
2022-12-29T14:16:27.531Z,3.57
2022-12-29T14:18:58.271Z,4.13
2022-12-29T14:21:30.733Z,4.30
2022-12-29T14:24:30.320Z,3.20
2022-12-29T14:26:58.026Z,4.13
2022-12-29T14:29:47.519Z,3.67
2022-12-29T14:32:40.076Z,4.73
2022-12-29T14:35:43.396Z,4.83
2022-12-29T14:38:29.033Z,3.57
2022-12-29T14:41:21.104Z,5.60
2022-12-29T14:44:04.855Z,3.37
2022-12-29T14:46:57.272Z,4.43
2022-12-29T14:49:27.494Z,4.97
2022-12-29T14:52:06.075Z,4.73
2022-12-29T14:55:02.530Z,3.87
2022-12-29T14:57:37.302Z,4.97
2022-12-29T15:00:18.102Z,4.37
2022-12-29T15:02:51.546Z,3.50
2022-12-29T15:05:31.855Z,4.13
2022-12-29T15:08:01.563Z,6.27
2022-12-29T15:10:38.024Z,4.27
2022-12-29T15:13:10.410Z,3.70
2022-12-29T15:15:39.969Z,3.00
2022-12-29T15:18:25.643Z,3.43
2022-12-29T15:20:56.655Z,3.27
2022-12-29T15:23:25.237Z,4.07
2022-12-29T15:25:56.900Z,3.60
2022-12-29T15:28:25.638Z,4.20
2022-12-29T15:30:58.253Z,3.90
2022-12-29T15:33:29.467Z,2.47
2022-12-29T15:35:59.124Z,3.57
2022-12-29T15:38:34.512Z,2.53
2022-12-29T15:41:08.886Z,2.57
2022-12-29T15:43:59.191Z,3.60
2022-12-29T15:46:27.300Z,2.67
2022-12-29T15:48:56.456Z,2.77
2022-12-29T15:51:32.148Z,3.00
2022-12-29T15:54:00.193Z,4.87
2022-12-29T15:56:31.108Z,4.80
2022-12-29T15:58:59.275Z,3.20
2022-12-29T16:01:31.760Z,4.90
2022-12-29T16:04:03.025Z,4.13
2022-12-29T16:06:33.033Z,3.00
2022-12-29T16:09:03.678Z,4.83
2022-12-29T16:11:36.129Z,4.63
2022-12-29T16:14:08.286Z,2.80
2022-12-29T16:16:40.272Z,4.60
2022-12-29T16:19:14.940Z,2.13
2022-12-29T16:21:43.415Z,2.93
2022-12-29T16:24:17.176Z,3.07
2022-12-29T16:26:50.680Z,2.43
2022-12-29T16:29:19.900Z,3.23
2022-12-29T16:31:54.285Z,3.87
2022-12-29T16:34:29.928Z,2.63
2022-12-29T16:36:59.249Z,3.20
2022-12-29T16:39:31.449Z,2.57
2022-12-29T16:41:59.843Z,2.90
2022-12-29T16:44:29.534Z,5.13
2022-12-29T16:47:20.452Z,3.80
2022-12-29T16:49:54.199Z,4.47
2022-12-29T16:52:25.986Z,3.10
2022-12-29T16:54:58.047Z,4.00
2022-12-29T16:57:28.710Z,3.60
2022-12-29T16:59:59.755Z,4.60
2022-12-29T17:02:31.580Z,5.03
2022-12-29T17:05:01.415Z,4.80
2022-12-29T17:07:30.467Z,6.33
2022-12-29T17:09:58.788Z,4.00
2022-12-29T17:12:29.702Z,3.70
2022-12-29T17:15:00.133Z,3.50
2022-12-29T17:17:34.676Z,5.63
2022-12-29T17:20:07.688Z,3.67
2022-12-29T17:22:36.587Z,3.40
2022-12-29T17:25:04.734Z,3.70
2022-12-29T17:27:37.794Z,4.00
2022-12-29T17:30:12.278Z,3.23
2022-12-29T17:32:41.334Z,4.10
2022-12-29T17:35:17.458Z,3.13
2022-12-29T17:37:46.064Z,3.30
2022-12-29T17:40:17.215Z,3.30
2022-12-29T17:42:47.649Z,5.03
2022-12-29T17:45:19.049Z,5.50
2022-12-29T17:47:47.845Z,5.30
2022-12-29T17:50:19.869Z,4.10
2022-12-29T17:52:52.559Z,4.30
2022-12-29T17:55:22.398Z,3.33
2022-12-29T17:57:51.345Z,3.40
2022-12-29T18:00:22.443Z,5.13
2022-12-29T18:02:51.341Z,3.30
2022-12-29T18:05:23.721Z,4.60
2022-12-29T18:07:54.219Z,3.17
2022-12-29T18:10:25.244Z,4.50
2022-12-29T18:12:55.815Z,3.00
2022-12-29T18:15:26.147Z,5.10
2022-12-29T18:17:59.635Z,4.20
2022-12-29T18:20:29.910Z,3.10
2022-12-29T18:22:58.785Z,3.70
2022-12-29T18:25:31.861Z,3.30
2022-12-29T18:27:59.563Z,3.00
2022-12-29T18:30:27.443Z,4.73
2022-12-29T18:32:55.151Z,5.20
2022-12-29T18:35:30.202Z,3.57
2022-12-29T18:37:58.041Z,4.37
2022-12-29T18:40:25.777Z,3.80
2022-12-29T18:42:53.561Z,4.77
2022-12-29T18:45:23.631Z,3.97
2022-12-29T18:47:51.768Z,4.03
2022-12-29T18:50:19.988Z,3.43
2022-12-29T18:52:49.259Z,3.53
2022-12-29T18:55:20.119Z,3.20
2022-12-29T18:57:47.987Z,3.90
2022-12-29T19:00:21.696Z,5.37
2022-12-29T19:02:50.392Z,5.90
2022-12-29T19:05:23.616Z,6.90
2022-12-29T19:07:53.737Z,8.33
2022-12-29T19:10:23.084Z,8.53
2022-12-29T19:12:51.718Z,6.50
2022-12-29T19:15:24.087Z,7.90
2022-12-29T19:18:16.007Z,8.30
2022-12-29T19:20:41.597Z,9.57
2022-12-29T19:23:12.879Z,7.97
2022-12-29T19:25:41.653Z,8.10
2022-12-29T19:28:17.232Z,8.57
2022-12-29T19:30:49.581Z,8.50
2022-12-29T19:33:20.122Z,9.37
2022-12-29T19:35:48.002Z,8.73
2022-12-29T19:38:17.123Z,10.60
2022-12-29T19:40:46.032Z,10.47
2022-12-29T19:43:14.840Z,9.23
2022-12-29T19:45:43.909Z,9.50
2022-12-29T19:48:15.529Z,8.40
2022-12-29T19:50:44.004Z,10.20
2022-12-29T19:53:12.820Z,10.30
2022-12-29T19:55:44.352Z,10.13
2022-12-29T19:58:12.321Z,8.73
2022-12-29T20:00:41.052Z,7.73
2022-12-29T20:03:09.103Z,7.93
2022-12-29T20:05:37.135Z,7.20
2022-12-29T20:08:05.009Z,6.00
2022-12-29T20:10:32.775Z,6.47
2022-12-29T20:13:02.689Z,5.13
2022-12-29T20:15:30.434Z,5.87
2022-12-29T20:18:14.768Z,4.27
2022-12-29T20:20:43.229Z,3.90
2022-12-29T20:23:11.161Z,4.97
2022-12-29T20:25:47.328Z,2.70
2022-12-29T20:28:23.099Z,3.07
2022-12-29T20:31:03.611Z,2.90
2022-12-29T20:33:33.017Z,3.13
2022-12-29T20:36:07.158Z,3.27
2022-12-29T20:38:35.320Z,2.70
2022-12-29T20:41:03.067Z,3.30
2022-12-29T20:43:32.177Z,2.40
2022-12-29T20:46:00.299Z,4.73
2022-12-29T20:48:28.285Z,4.90
2022-12-29T20:50:59.392Z,3.90
2022-12-29T20:53:27.814Z,4.17
2022-12-29T20:55:56.570Z,5.10
2022-12-29T20:58:24.910Z,4.80
2022-12-29T21:00:54.584Z,5.97
2022-12-29T21:03:22.654Z,4.80
2022-12-29T21:05:50.443Z,5.80
2022-12-29T21:08:18.160Z,4.43
2022-12-29T21:10:47.422Z,4.00
2022-12-29T21:13:15.419Z,4.80
2022-12-29T21:15:43.245Z,4.57
2022-12-29T21:18:13.631Z,4.03
2022-12-29T21:20:41.476Z,5.03
2022-12-29T21:23:09.274Z,3.80
2022-12-29T21:25:37.983Z,4.57
2022-12-29T21:28:06.302Z,4.33
2022-12-29T21:30:34.604Z,4.07
2022-12-29T21:33:02.513Z,4.57
2022-12-29T21:35:31.965Z,4.70
2022-12-29T21:37:59.679Z,4.63
2022-12-29T21:40:27.382Z,5.30
2022-12-29T21:42:55.232Z,4.43
2022-12-29T21:45:24.723Z,4.37
2022-12-29T21:48:09.769Z,3.70
2022-12-29T21:51:01.189Z,6.03
2022-12-29T21:53:38.821Z,3.30
2022-12-29T21:56:08.845Z,3.60
2022-12-29T21:58:54.759Z,2.90
2022-12-29T22:01:40.731Z,3.37
2022-12-29T22:04:26.602Z,3.23
2022-12-29T22:07:13.214Z,3.13
2022-12-29T22:09:58.609Z,4.20
2022-12-29T22:12:43.991Z,2.67
2022-12-29T22:15:12.155Z,3.40
2022-12-29T22:17:44.986Z,4.27
2022-12-29T22:20:16.613Z,4.07
2022-12-29T22:22:45.744Z,4.70
2022-12-29T22:25:14.080Z,3.00
2022-12-29T22:27:42.341Z,3.30
2022-12-29T22:30:11.128Z,5.27
2022-12-29T22:32:39.230Z,3.73
2022-12-29T22:35:08.659Z,6.23
2022-12-29T22:37:37.400Z,4.10
2022-12-29T22:40:09.720Z,3.57
2022-12-29T22:42:37.494Z,4.10
2022-12-29T22:45:05.769Z,3.23
2022-12-29T22:47:33.512Z,4.87
2022-12-29T22:50:01.283Z,4.40
2022-12-29T22:52:29.087Z,4.33
2022-12-29T22:55:01.695Z,4.70
2022-12-29T22:57:33.906Z,5.67
2022-12-29T23:00:01.907Z,3.67
2022-12-29T23:02:30.422Z,3.60
2022-12-29T23:05:03.396Z,4.70
2022-12-29T23:07:33.100Z,4.40
2022-12-29T23:10:01.033Z,6.47
2022-12-29T23:12:31.202Z,3.30
2022-12-29T23:15:00.349Z,3.10
2022-12-29T23:17:28.143Z,5.27
2022-12-29T23:19:55.899Z,4.67
2022-12-29T23:22:25.006Z,3.77
2022-12-29T23:24:52.826Z,3.37
2022-12-29T23:27:20.643Z,2.40
2022-12-29T23:29:48.444Z,3.20
2022-12-29T23:32:17.600Z,3.67
2022-12-29T23:34:45.404Z,2.10
2022-12-29T23:37:13.103Z,2.80
2022-12-29T23:39:40.873Z,1.77
2022-12-29T23:42:08.751Z,2.20
2022-12-29T23:44:36.500Z,0.97
2022-12-29T23:47:04.394Z,1.10
2022-12-29T23:49:33.541Z,2.67
2022-12-29T23:52:01.263Z,1.43
2022-12-29T23:54:29.059Z,1.40
2022-12-29T23:56:56.760Z,0.40
2022-12-29T23:59:24.480Z,0.80
